Time;durP1;ratioP1;P1;durP2;ratioP2;P2;SDS_P1;SDS_P2;PMS_P1;PMS_P2;Temp;Humidity;BMP_temperature;BMP_pressure;BME280_temperature;BME280_humidity;BME280_pressure;Samples;Min_cycle;Max_cycle;Signal;HPM_P1;HPM_P2
2023/08/27 00:00:27;;;;;;;13.38;12.27;;;12.80;99.90;;;;;;6121647;23;20371;-89
2023/08/27 00:02:53;;;;;;;16.43;15.00;;;12.90;99.90;;;;;;6122544;23;20422;-88
2023/08/27 00:05:19;;;;;;;12.85;11.85;;;12.70;99.90;;;;;;6096382;23;20399;-87
2023/08/27 00:07:44;;;;;;;11.57;10.67;;;12.70;99.90;;;;;;6098604;23;20739;-88
2023/08/27 00:10:10;;;;;;;12.80;11.77;;;12.70;99.90;;;;;;6120764;23;20378;-88
2023/08/27 00:12:36;;;;;;;13.90;12.80;;;12.70;99.90;;;;;;6122928;23;21189;-88
2023/08/27 00:15:03;;;;;;;10.80;9.90;;;13.00;99.90;;;;;;6121124;23;20454;-88
2023/08/27 00:17:29;;;;;;;14.25;12.95;;;12.70;99.90;;;;;;6122157;23;20379;-88
2023/08/27 00:19:55;;;;;;;13.25;12.15;;;12.60;99.90;;;;;;6122411;23;20399;-88
2023/08/27 00:22:21;;;;;;;13.77;12.67;;;12.60;99.90;;;;;;6120813;23;20375;-88
2023/08/27 00:24:47;;;;;;;13.45;12.30;;;12.60;99.90;;;;;;6122814;23;20395;-89
2023/08/27 00:27:13;;;;;;;14.37;13.17;;;12.80;99.90;;;;;;6120429;23;20775;-87
2023/08/27 00:29:38;;;;;;;12.97;11.80;;;12.60;99.90;;;;;;6098081;23;20425;-88
2023/08/27 00:32:05;;;;;;;13.98;12.68;;;12.60;99.90;;;;;;6120607;23;20392;-88
2023/08/27 00:34:34;;;;;;;14.95;13.70;;;12.50;99.90;;;;;;6098170;23;20375;-88
2023/08/27 00:37:00;;;;;;;14.70;13.40;;;12.50;99.90;;;;;;6122110;23;20383;-88
2023/08/27 00:39:28;;;;;;;16.35;15.02;;;12.50;99.90;;;;;;6097110;23;20371;-89
2023/08/27 00:41:53;;;;;;;18.08;16.58;;;12.50;99.90;;;;;;6122712;23;20449;-88
2023/08/27 00:44:20;;;;;;;16.83;15.43;;;12.50;99.90;;;;;;6095672;23;20433;-88
2023/08/27 00:46:47;;;;;;;21.05;19.17;;;12.50;99.90;;;;;;6122578;23;20903;-88
2023/08/27 00:49:12;;;;;;;20.52;18.73;;;12.50;99.90;;;;;;6095867;23;20881;-88
2023/08/27 00:51:38;;;;;;;20.83;19.13;;;12.50;99.90;;;;;;6122139;23;20371;-89
2023/08/27 00:54:05;;;;;;;27.97;25.43;;;12.50;99.90;;;;;;6096809;23;20375;-88
2023/08/27 00:56:31;;;;;;;23.83;21.73;;;12.50;99.90;;;;;;6121598;23;20375;-89
2023/08/27 00:58:57;;;;;;;25.00;22.63;;;12.90;99.90;;;;;;6097776;23;20375;-88
2023/08/27 01:01:23;;;;;;;23.30;21.33;;;12.50;99.90;;;;;;6095472;23;20450;-88
2023/08/27 01:03:49;;;;;;;22.08;20.17;;;12.60;99.90;;;;;;6117160;23;20896;-89
2023/08/27 01:06:15;;;;;;;23.63;21.63;;;12.80;99.90;;;;;;6090767;23;20384;-89
2023/08/27 01:09:12;;;;;;;30.52;27.63;;;12.60;99.90;;;;;;6117547;23;20466;-88
2023/08/27 01:12:15;;;;;;;28.00;25.33;;;12.60;99.90;;;;;;6116255;23;20460;-88
2023/08/27 01:14:46;;;;;;;26.38;23.98;;;12.70;99.90;;;;;;6115007;23;20373;-89
2023/08/27 01:17:16;;;;;;;26.25;23.95;;;12.70;99.90;;;;;;6092511;23;20373;-89
2023/08/27 01:19:43;;;;;;;25.83;23.52;;;12.80;99.90;;;;;;6090609;23;20380;-88
2023/08/27 01:22:08;;;;;;;27.27;24.67;;;12.80;99.90;;;;;;6092203;23;20376;-88
2023/08/27 01:24:34;;;;;;;26.70;24.23;;;12.80;99.90;;;;;;6116574;23;20401;-88
2023/08/27 01:27:11;;;;;;;24.33;22.23;;;12.90;99.90;;;;;;6091069;23;20405;-89
2023/08/27 01:29:39;;;;;;;29.07;26.37;;;12.80;99.90;;;;;;6117576;23;20388;-89
2023/08/27 01:32:20;;;;;;;23.77;21.67;;;12.90;99.90;;;;;;6115206;23;20381;-89
2023/08/27 01:34:47;;;;;;;28.17;25.48;;;12.90;99.90;;;;;;6117019;23;20380;-89
2023/08/27 01:37:13;;;;;;;25.93;23.47;;;12.80;99.90;;;;;;6115609;23;20402;-88
2023/08/27 01:39:42;;;;;;;26.13;23.83;;;12.80;99.90;;;;;;6092269;23;20423;-89
2023/08/27 01:42:07;;;;;;;25.10;22.90;;;12.80;99.90;;;;;;6092252;23;20381;-89
2023/08/27 01:44:33;;;;;;;27.17;24.70;;;12.80;99.90;;;;;;6115446;23;20463;-89
2023/08/27 01:46:59;;;;;;;26.60;24.25;;;12.80;99.90;;;;;;6116777;23;20372;-89
2023/08/27 01:49:25;;;;;;;23.33;21.23;;;12.80;99.90;;;;;;6114957;23;21000;-89
2023/08/27 01:51:51;;;;;;;21.93;20.03;;;12.90;99.90;;;;;;6092574;23;20404;-88
2023/08/27 01:54:16;;;;;;;22.13;20.33;;;12.70;99.90;;;;;;6114987;23;20388;-89
2023/08/27 01:56:42;;;;;;;24.27;22.17;;;12.70;99.90;;;;;;6117015;23;20795;-89
2023/08/27 01:59:08;;;;;;;22.30;20.40;;;12.70;99.90;;;;;;6116386;23;20381;-88
2023/08/27 02:01:33;;;;;;;21.65;19.77;;;13.00;99.90;;;;;;6115782;23;20408;-89
2023/08/27 02:03:59;;;;;;;19.30;17.80;;;12.70;99.90;;;;;;6092052;23;20404;-88
2023/08/27 02:06:24;;;;;;;19.65;18.05;;;12.70;99.90;;;;;;6090447;23;20380;-89
2023/08/27 02:08:50;;;;;;;21.23;19.43;;;12.80;99.90;;;;;;6091907;23;20822;-88
2023/08/27 02:11:15;;;;;;;21.60;19.70;;;12.70;99.90;;;;;;6114681;23;20375;-88
2023/08/27 02:13:41;;;;;;;20.23;18.47;;;12.70;99.90;;;;;;6092213;23;20869;-89
2023/08/27 02:16:07;;;;;;;21.97;20.07;;;12.70;99.90;;;;;;6115076;23;20377;-88
2023/08/27 02:18:32;;;;;;;20.03;18.30;;;12.80;99.90;;;;;;6092126;23;20391;-89
2023/08/27 02:20:58;;;;;;;23.80;21.60;;;12.80;99.90;;;;;;6116697;23;20439;-89
2023/08/27 02:23:23;;;;;;;17.83;16.35;;;12.70;99.90;;;;;;6115108;23;20850;-88
2023/08/27 02:25:49;;;;;;;19.90;18.27;;;12.70;99.90;;;;;;6116875;23;20430;-88
2023/08/27 02:28:15;;;;;;;23.60;21.33;;;12.70;99.90;;;;;;6114585;23;20388;-89
2023/08/27 02:30:40;;;;;;;21.95;19.92;;;12.70;99.90;;;;;;6092409;23;20369;-89
2023/08/27 02:33:06;;;;;;;20.23;18.53;;;12.70;99.90;;;;;;6114414;23;20372;-88
2023/08/27 02:35:32;;;;;;;18.58;17.02;;;13.00;99.90;;;;;;6092794;23;20377;-88
2023/08/27 02:37:57;;;;;;;19.60;18.00;;;13.40;99.90;;;;;;6115838;23;20788;-88
2023/08/27 02:40:23;;;;;;;20.70;19.00;;;12.80;99.90;;;;;;6115984;23;20455;-88
2023/08/27 02:42:49;;;;;;;21.60;19.73;;;12.90;99.90;;;;;;6091949;23;20400;-88
2023/08/27 02:45:14;;;;;;;24.73;22.50;;;12.60;99.90;;;;;;6090246;23;20969;-88
2023/08/27 02:47:40;;;;;;;20.97;19.03;;;12.50;99.90;;;;;;6092757;23;20576;-88
2023/08/27 02:50:06;;;;;;;20.55;18.65;;;12.60;99.90;;;;;;6114593;23;20786;-88
2023/08/27 02:52:32;;;;;;;22.65;20.58;;;12.50;99.90;;;;;;6115826;23;20610;-88
2023/08/27 02:54:57;;;;;;;20.77;18.97;;;12.40;99.90;;;;;;6115506;23;20853;-87
2023/08/27 02:57:23;;;;;;;18.20;16.70;;;12.40;99.90;;;;;;6092191;23;20369;-88
2023/08/27 02:59:49;;;;;;;26.15;23.65;;;12.40;99.90;;;;;;6116038;23;20384;-89
2023/08/27 03:02:14;;;;;;;26.07;23.53;;;12.40;99.90;;;;;;6092089;23;20379;-88
2023/08/27 03:04:40;;;;;;;25.30;23.00;;;12.40;99.90;;;;;;6121176;23;20792;-87
2023/08/27 03:07:06;;;;;;;21.35;19.45;;;12.50;99.90;;;;;;6095172;23;20434;-88
2023/08/27 03:09:31;;;;;;;24.40;22.00;;;12.90;99.90;;;;;;6121635;23;20379;-87
2023/08/27 03:11:57;;;;;;;24.00;21.70;;;12.40;99.90;;;;;;6094810;23;20437;-87
2023/08/27 03:14:22;;;;;;;22.47;20.33;;;12.50;99.90;;;;;;6121794;23;20593;-88
2023/08/27 03:16:48;;;;;;;23.20;21.10;;;12.70;99.90;;;;;;6095464;23;20446;-88
2023/08/27 03:19:13;;;;;;;23.90;21.80;;;12.40;99.90;;;;;;6096068;23;20383;-88
2023/08/27 03:21:39;;;;;;;23.73;21.50;;;12.40;99.90;;;;;;6121349;23;20421;-88
2023/08/27 03:24:05;;;;;;;21.20;19.38;;;12.40;99.90;;;;;;6096665;23;20430;-88
2023/08/27 03:26:30;;;;;;;27.70;25.03;;;12.40;99.90;;;;;;6122673;23;20375;-89
2023/08/27 03:28:56;;;;;;;28.13;25.33;;;12.40;99.90;;;;;;6096849;23;20395;-89
2023/08/27 03:31:22;;;;;;;30.97;27.87;;;12.50;99.90;;;;;;6122915;23;20917;-88
2023/08/27 03:33:47;;;;;;;25.23;22.92;;;12.50;99.90;;;;;;6096990;23;20378;-88
2023/08/27 03:36:13;;;;;;;27.43;24.73;;;12.50;99.90;;;;;;6123146;23;20677;-89
2023/08/27 03:38:39;;;;;;;30.67;27.53;;;12.60;99.90;;;;;;6122099;23;20386;-88
2023/08/27 03:41:05;;;;;;;28.80;25.87;;;12.70;99.90;;;;;;6121772;23;20371;-89
2023/08/27 03:43:30;;;;;;;28.08;25.10;;;12.70;99.90;;;;;;6098411;23;20687;-88
2023/08/27 03:45:56;;;;;;;31.23;28.07;;;12.80;99.90;;;;;;6120921;23;20469;-88
2023/08/27 03:48:22;;;;;;;31.65;28.35;;;13.10;99.90;;;;;;6098444;23;20387;-89
2023/08/27 03:50:47;;;;;;;29.45;26.42;;;12.90;99.90;;;;;;6096231;23;20836;-89
2023/08/27 03:53:13;;;;;;;29.30;26.30;;;12.90;99.90;;;;;;6098253;23;20788;-89
2023/08/27 03:55:42;;;;;;;29.65;26.88;;;13.00;99.90;;;;;;6121136;23;20403;-88
2023/08/27 03:58:08;;;;;;;30.13;27.07;;;13.00;99.90;;;;;;6122116;23;20411;-89
2023/08/27 04:00:35;;;;;;;29.20;26.38;;;13.00;99.90;;;;;;6098164;23;20378;-88
2023/08/27 04:03:02;;;;;;;28.08;25.27;;;13.10;99.90;;;;;;6120809;23;20442;-88
2023/08/27 04:05:28;;;;;;;28.60;25.90;;;13.10;99.90;;;;;;6098403;23;20441;-88
2023/08/27 04:07:53;;;;;;;27.73;25.17;;;13.10;99.90;;;;;;6120878;23;20708;-88
2023/08/27 04:10:19;;;;;;;26.80;24.20;;;13.20;99.90;;;;;;6098046;23;20367;-89
2023/08/27 04:12:44;;;;;;;26.07;23.63;;;13.20;99.90;;;;;;6121283;23;20482;-89
2023/08/27 04:15:10;;;;;;;26.38;23.88;;;13.20;99.90;;;;;;6123131;23;20363;-89
2023/08/27 04:17:36;;;;;;;24.63;22.33;;;13.30;99.90;;;;;;6097603;23;20643;-88
2023/08/27 04:20:01;;;;;;;23.27;20.97;;;13.30;99.90;;;;;;6097506;23;20878;-88
2023/08/27 04:22:27;;;;;;;27.10;24.58;;;13.30;99.90;;;;;;6122569;23;20387;-88
2023/08/27 04:24:54;;;;;;;27.93;25.13;;;13.30;99.90;;;;;;6096394;23;20462;-89
2023/08/27 04:27:20;;;;;;;26.80;24.20;;;13.50;99.90;;;;;;6098803;23;20866;-88
2023/08/27 04:29:46;;;;;;;26.07;23.47;;;13.30;99.90;;;;;;6120577;23;20695;-88
2023/08/27 04:32:11;;;;;;;26.53;24.00;;;13.30;99.90;;;;;;6098210;23;20367;-88
2023/08/27 04:34:37;;;;;;;28.67;25.77;;;13.30;99.90;;;;;;6096408;23;20931;-88
2023/08/27 04:37:03;;;;;;;27.60;24.77;;;13.30;99.90;;;;;;6097861;23;20482;-89
2023/08/27 04:39:29;;;;;;;30.27;27.23;;;13.20;99.90;;;;;;6122231;23;20371;-88
2023/08/27 04:41:55;;;;;;;27.50;24.83;;;13.20;99.90;;;;;;6096241;23;20855;-88
2023/08/27 04:44:21;;;;;;;28.33;25.43;;;13.20;99.90;;;;;;6097635;23;20395;-88
2023/08/27 04:46:47;;;;;;;28.20;25.40;;;13.20;99.90;;;;;;6120262;23;20379;-88
2023/08/27 04:49:13;;;;;;;26.23;23.65;;;13.20;99.90;;;;;;6097765;23;20379;-88
2023/08/27 04:51:38;;;;;;;26.33;23.80;;;13.20;99.90;;;;;;6096504;23;20744;-87
2023/08/27 04:54:04;;;;;;;27.80;25.10;;;13.10;99.90;;;;;;6097459;23;20379;-88
2023/08/27 04:56:30;;;;;;;27.38;24.70;;;13.10;99.90;;;;;;6094773;23;20363;-88
2023/08/27 04:58:55;;;;;;;25.50;23.00;;;13.10;99.90;;;;;;6097024;23;20481;-88
2023/08/27 05:01:21;;;;;;;26.03;23.53;;;13.10;99.90;;;;;;6097521;23;20421;-88
2023/08/27 05:03:46;;;;;;;25.80;23.42;;;13.50;99.90;;;;;;6119732;23;20379;-88
2023/08/27 05:06:12;;;;;;;26.47;23.97;;;13.20;99.90;;;;;;6096751;23;20395;-88
2023/08/27 05:08:38;;;;;;;26.85;24.15;;;13.30;99.90;;;;;;6095097;23;20847;-88
2023/08/27 05:11:04;;;;;;;27.02;24.42;;;13.30;99.90;;;;;;6122147;23;20376;-88
2023/08/27 05:13:29;;;;;;;25.65;23.35;;;13.40;99.90;;;;;;6094691;23;20773;-89
2023/08/27 05:15:55;;;;;;;24.93;22.73;;;13.90;99.90;;;;;;6097412;23;20386;-90
2023/08/27 05:18:21;;;;;;;25.25;22.92;;;13.50;99.90;;;;;;6096361;23;20519;-89
2023/08/27 05:20:46;;;;;;;23.97;21.87;;;13.70;99.90;;;;;;6095272;23;20855;-89
2023/08/27 05:23:12;;;;;;;23.85;21.48;;;13.80;99.90;;;;;;6096796;23;20375;-89
2023/08/27 05:25:38;;;;;;;24.35;22.05;;;13.90;99.90;;;;;;6120025;23;20482;-89
2023/08/27 05:28:04;;;;;;;23.30;21.23;;;14.10;99.90;;;;;;6123006;23;20450;-89
2023/08/27 05:30:30;;;;;;;21.87;19.77;;;14.20;99.90;;;;;;6120180;23;20378;-88
2023/08/27 05:32:56;;;;;;;21.47;19.57;;;14.30;99.90;;;;;;6097914;23;20437;-90
2023/08/27 05:35:24;;;;;;;22.73;20.80;;;14.30;99.90;;;;;;6121085;23;20486;-89
2023/08/27 05:37:50;;;;;;;21.10;19.27;;;14.40;99.90;;;;;;6097318;23;20720;-89
2023/08/27 05:40:15;;;;;;;22.10;20.20;;;14.40;99.90;;;;;;6121026;23;20377;-89
2023/08/27 05:42:41;;;;;;;21.90;19.92;;;14.40;99.90;;;;;;6120692;23;20431;-90
2023/08/27 05:45:07;;;;;;;20.93;19.03;;;14.40;99.90;;;;;;6098174;23;20403;-90
2023/08/27 05:47:33;;;;;;;22.23;20.13;;;14.40;99.90;;;;;;6095378;23;20422;-89
2023/08/27 05:49:59;;;;;;;21.90;20.00;;;14.40;99.90;;;;;;6123525;23;20372;-89
2023/08/27 05:52:24;;;;;;;24.52;22.13;;;14.40;99.90;;;;;;6096483;23;20379;-90
2023/08/27 05:54:50;;;;;;;24.40;21.97;;;14.40;99.90;;;;;;6097324;23;20382;-89
2023/08/27 05:57:16;;;;;;;25.02;22.42;;;14.40;99.90;;;;;;6096767;23;20488;-88
2023/08/27 05:59:42;;;;;;;22.95;20.83;;;14.40;99.90;;;;;;6095834;23;20375;-89
2023/08/27 06:02:09;;;;;;;23.70;21.40;;;14.50;99.90;;;;;;6097087;23;20879;-89
2023/08/27 06:04:34;;;;;;;22.05;19.85;;;14.50;99.90;;;;;;6119533;23;20407;-89
2023/08/27 06:07:00;;;;;;;22.03;19.93;;;14.70;99.90;;;;;;6121696;23;20726;-89
2023/08/27 06:09:26;;;;;;;23.42;21.02;;;14.80;99.90;;;;;;6119659;23;20712;-89
2023/08/27 06:11:51;;;;;;;21.97;19.80;;;14.60;99.90;;;;;;6097664;23;20371;-88
2023/08/27 06:14:17;;;;;;;22.17;19.98;;;14.70;99.90;;;;;;6095771;23;20376;-89
2023/08/27 06:16:43;;;;;;;20.27;18.27;;;14.70;99.90;;;;;;6097284;23;20882;-90
2023/08/27 06:19:09;;;;;;;18.55;16.85;;;14.80;99.90;;;;;;6098599;23;20375;-89
2023/08/27 06:21:36;;;;;;;19.17;17.27;;;14.90;99.90;;;;;;6094714;23;20463;-89
2023/08/27 06:24:02;;;;;;;20.52;18.70;;;14.90;99.90;;;;;;6098374;23;20401;-90
2023/08/27 06:26:27;;;;;;;18.67;16.88;;;15.00;99.90;;;;;;6095652;23;20367;-89
2023/08/27 06:28:53;;;;;;;19.45;17.55;;;15.20;99.90;;;;;;6122251;23;20445;-91
2023/08/27 06:31:19;;;;;;;19.23;17.13;;;15.10;99.90;;;;;;6119820;23;20375;-91
2023/08/27 06:33:44;;;;;;;17.23;15.45;;;15.40;99.90;;;;;;6097274;23;20719;-90
2023/08/27 06:36:10;;;;;;;18.30;16.50;;;15.20;99.90;;;;;;6121500;23;20376;-92
2023/08/27 06:38:35;;;;;;;17.75;15.77;;;15.20;99.90;;;;;;6097021;23;20919;-91
2023/08/27 06:41:01;;;;;;;17.63;15.87;;;15.60;99.90;;;;;;6097946;23;20848;-90
2023/08/27 06:43:27;;;;;;;17.80;15.95;;;15.70;99.90;;;;;;6095184;23;20371;-91
2023/08/27 06:45:52;;;;;;;16.60;14.87;;;15.20;99.90;;;;;;6097157;23;20847;-90
2023/08/27 06:48:18;;;;;;;17.08;15.27;;;15.50;99.90;;;;;;6095449;23;20467;-90
2023/08/27 06:50:43;;;;;;;18.50;16.57;;;15.30;99.90;;;;;;6121920;23;20779;-91
2023/08/27 06:53:10;;;;;;;17.07;15.30;;;15.30;99.90;;;;;;6096079;23;20406;-89
2023/08/27 06:55:36;;;;;;;18.55;16.50;;;15.40;99.90;;;;;;6098807;23;20450;-90
2023/08/27 06:58:02;;;;;;;18.55;16.48;;;15.40;99.90;;;;;;6100023;23;20406;-89
2023/08/27 07:00:28;;;;;;;17.63;15.53;;;15.50;99.90;;;;;;6122545;23;20389;-90
2023/08/27 07:02:54;;;;;;;17.40;15.67;;;15.50;99.90;;;;;;6099976;23;20394;-91
2023/08/27 07:05:20;;;;;;;17.00;15.27;;;15.70;99.90;;;;;;6097510;23;20399;-91
2023/08/27 07:07:46;;;;;;;19.48;16.83;;;15.90;99.90;;;;;;6099967;23;20415;-92
2023/08/27 07:10:14;;;;;;;16.88;15.13;;;15.80;99.90;;;;;;6123005;23;20378;-91
2023/08/27 07:12:40;;;;;;;16.23;14.50;;;15.90;99.90;;;;;;6099859;23;20700;-89
2023/08/27 07:15:07;;;;;;;16.63;14.50;;;15.90;99.90;;;;;;6122209;23;20433;-91
2023/08/27 07:17:33;;;;;;;16.52;14.70;;;16.00;99.90;;;;;;6122162;23;20413;-91
2023/08/27 07:20:07;;;;;;;15.33;13.83;;;16.00;99.90;;;;;;6123337;23;20379;-90
2023/08/27 07:22:33;;;;;;;16.45;14.85;;;16.10;99.90;;;;;;6121204;23;20792;-90
2023/08/27 07:24:59;;;;;;;16.52;14.88;;;16.20;99.90;;;;;;6123103;23;20446;-91
2023/08/27 07:27:28;;;;;;;15.63;14.23;;;16.40;99.90;;;;;;6098497;23;20382;-89
2023/08/27 07:29:54;;;;;;;15.68;14.15;;;16.10;99.90;;;;;;6099751;23;20455;-90
2023/08/27 07:32:19;;;;;;;14.47;13.07;;;16.20;99.90;;;;;;6097520;23;20368;-91
2023/08/27 07:34:45;;;;;;;15.45;13.35;;;16.20;99.90;;;;;;6098832;23;20390;-92
2023/08/27 07:37:10;;;;;;;14.27;12.90;;;16.30;99.90;;;;;;6099434;23;20463;-89
2023/08/27 07:39:36;;;;;;;14.02;12.70;;;16.30;99.90;;;;;;6097711;23;20426;-91
2023/08/27 07:42:02;;;;;;;12.67;11.47;;;16.60;99.90;;;;;;6099204;23;20474;-91
2023/08/27 07:44:28;;;;;;;11.20;10.00;;;17.00;99.90;;;;;;6097082;23;20402;-91
2023/08/27 07:46:53;;;;;;;11.73;10.53;;;17.30;99.90;;;;;;6099764;23;20672;-91
2023/08/27 07:49:19;;;;;;;9.82;8.82;;;17.60;99.90;;;;;;6097328;23;20446;-90
2023/08/27 07:51:46;;;;;;;9.50;8.53;;;17.60;99.90;;;;;;6123182;23;20390;-92
2023/08/27 07:54:11;;;;;;;10.17;9.07;;;17.90;99.90;;;;;;6121736;23;20374;-90
2023/08/27 07:56:37;;;;;;;8.82;7.53;;;17.90;99.90;;;;;;6097869;23;20542;-90
2023/08/27 07:59:03;;;;;;;10.55;9.15;;;17.80;99.90;;;;;;6098424;23;20410;-91
2023/08/27 08:01:28;;;;;;;8.93;8.03;;;17.80;99.90;;;;;;6097035;23;20402;-91
2023/08/27 08:03:54;;;;;;;6.80;5.95;;;17.90;99.90;;;;;;6123138;23;20437;-90
2023/08/27 08:06:20;;;;;;;5.93;5.33;;;18.30;99.90;;;;;;6097044;23;20383;-90
2023/08/27 08:08:45;;;;;;;5.30;4.80;;;18.20;99.90;;;;;;6123410;23;20745;-90
2023/08/27 08:11:11;;;;;;;6.13;4.60;;;18.30;99.90;;;;;;6121433;23;20375;-90
2023/08/27 08:13:39;;;;;;;5.67;5.17;;;19.00;99.90;;;;;;6099132;23;20371;-90
2023/08/27 08:16:05;;;;;;;5.03;4.30;;;18.60;99.90;;;;;;6098666;23;20379;-90
2023/08/27 08:18:31;;;;;;;4.70;4.13;;;18.60;99.90;;;;;;6097553;23;20385;-92
2023/08/27 08:20:58;;;;;;;4.30;3.88;;;18.60;99.90;;;;;;6099443;23;20864;-89
2023/08/27 08:23:25;;;;;;;4.75;4.00;;;19.00;99.90;;;;;;6097089;23;20375;-92
2023/08/27 08:25:51;;;;;;;4.68;3.85;;;19.10;99.90;;;;;;6098207;23;20395;-90
2023/08/27 08:28:16;;;;;;;4.10;3.70;;;18.50;99.90;;;;;;6119882;23;20375;-90
2023/08/27 08:30:48;;;;;;;4.95;3.70;;;18.70;99.90;;;;;;6098184;23;20460;-91
2023/08/27 08:33:15;;;;;;;4.78;3.10;;;18.90;99.90;;;;;;6122047;23;20863;-91
2023/08/27 08:35:41;;;;;;;4.55;3.50;;;18.60;99.90;;;;;;6097240;23;20457;-91
2023/08/27 08:38:07;;;;;;;4.18;2.60;;;18.70;99.90;;;;;;6098812;23;20374;-90
2023/08/27 08:40:44;;;;;;;4.32;2.80;;;18.70;99.90;;;;;;6120796;23;20375;-91
2023/08/27 08:43:23;;;;;;;3.47;2.75;;;18.80;99.90;;;;;;6122976;23;20454;-91
2023/08/27 08:45:53;;;;;;;4.20;3.10;;;18.80;99.90;;;;;;6121694;23;20435;-91
2023/08/27 08:48:25;;;;;;;3.80;3.00;;;18.90;99.90;;;;;;6122799;23;20398;-92
2023/08/27 08:50:53;;;;;;;4.35;3.00;;;19.20;99.90;;;;;;6098371;23;20379;-92
2023/08/27 08:53:23;;;;;;;3.25;2.95;;;19.10;99.90;;;;;;6096556;23;20375;-91
2023/08/27 08:55:56;;;;;;;3.08;2.13;;;19.20;99.90;;;;;;6099341;23;20383;-91
2023/08/27 08:58:28;;;;;;;3.40;2.53;;;19.50;99.90;;;;;;6096678;23;20430;-90
2023/08/27 09:00:55;;;;;;;3.97;2.55;;;19.80;99.90;;;;;;6098343;23;20375;-90
2023/08/27 09:03:22;;;;;;;4.37;2.57;;;19.90;99.90;;;;;;6116591;23;20399;-92
2023/08/27 09:05:50;;;;;;;3.40;2.20;;;19.60;99.90;;;;;;6093006;23;20404;-89
2023/08/27 09:08:18;;;;;;;4.55;2.47;;;19.90;99.90;;;;;;6117710;23;20384;-91
2023/08/27 09:10:44;;;;;;;2.25;1.45;;;19.70;99.90;;;;;;6091647;23;20383;-91
2023/08/27 09:13:10;;;;;;;2.70;1.50;;;19.80;99.90;;;;;;6093217;23;20381;-91
2023/08/27 09:15:36;;;;;;;1.98;1.27;;;20.20;99.90;;;;;;6091144;23;20379;-91
2023/08/27 09:18:02;;;;;;;2.60;1.20;;;20.10;99.90;;;;;;6093433;23;20384;-92
2023/08/27 09:20:28;;;;;;;2.30;0.90;;;20.40;99.90;;;;;;6115845;23;20461;-91
2023/08/27 09:22:55;;;;;;;1.75;0.70;;;20.80;99.90;;;;;;6117436;23;20731;-93
2023/08/27 09:25:21;;;;;;;1.80;0.70;;;21.00;98.80;;;;;;6092604;23;20476;-92
2023/08/27 09:27:47;;;;;;;1.60;0.70;;;21.20;99.90;;;;;;6091766;23;20373;-91
2023/08/27 09:30:13;;;;;;;2.10;0.63;;;21.10;99.90;;;;;;6093205;23;20499;-91
2023/08/27 09:32:39;;;;;;;2.03;0.60;;;21.00;99.90;;;;;;6091464;23;20376;-91
2023/08/27 09:35:05;;;;;;;1.45;0.50;;;21.00;99.70;;;;;;6093365;23;20710;-92
2023/08/27 09:37:39;;;;;;;1.07;0.47;;;21.00;99.90;;;;;;6090481;23;20898;-91
2023/08/27 09:40:09;;;;;;;1.03;0.30;;;21.00;99.90;;;;;;6093067;23;20416;-91
2023/08/27 09:42:35;;;;;;;0.80;0.30;;;20.90;99.90;;;;;;6092712;23;20445;-91
2023/08/27 09:45:00;;;;;;;1.55;0.30;;;21.20;99.90;;;;;;6115637;23;20396;-92
2023/08/27 09:47:30;;;;;;;1.73;0.40;;;21.40;97.10;;;;;;6093203;23;20464;-90
2023/08/27 09:49:56;;;;;;;1.53;0.37;;;20.90;99.00;;;;;;6115616;23;20387;-92
2023/08/27 09:52:24;;;;;;;1.40;0.40;;;20.80;99.90;;;;;;6117642;23;20389;-93
2023/08/27 09:54:50;;;;;;;2.17;0.57;;;20.80;99.90;;;;;;6091012;23;20381;-92
2023/08/27 09:57:20;;;;;;;1.30;0.50;;;21.20;99.90;;;;;;6093711;23;20440;-93
2023/08/27 09:59:46;;;;;;;1.30;0.70;;;21.20;99.90;;;;;;6116706;23;20436;-92
2023/08/27 10:02:20;;;;;;;1.67;0.60;;;21.50;99.90;;;;;;6117556;23;20455;-92
2023/08/27 10:04:56;;;;;;;1.88;0.50;;;21.60;93.60;;;;;;6121573;23;20904;-91
2023/08/27 10:07:22;;;;;;;2.40;0.85;;;21.80;79.80;;;;;;6095207;23;20375;-91
2023/08/27 10:09:50;;;;;;;3.10;0.70;;;22.10;73.50;;;;;;6121977;23;20378;-92
2023/08/27 10:12:17;;;;;;;2.40;0.70;;;22.30;73.00;;;;;;6120020;23;20426;-92
2023/08/27 10:14:44;;;;;;;2.33;0.70;;;22.70;95.30;;;;;;6098293;23;20406;-92
2023/08/27 10:17:15;;;;;;;1.38;0.60;;;23.20;87.20;;;;;;6096715;23;20371;-92
2023/08/27 10:19:41;;;;;;;2.00;0.80;;;23.40;69.10;;;;;;6096240;23;21114;-93
2023/08/27 10:22:07;;;;;;;1.58;0.73;;;23.30;71.70;;;;;;6122645;23;20457;-94
2023/08/27 10:24:33;;;;;;;1.55;0.70;;;23.00;77.10;;;;;;6095860;23;20486;-91
2023/08/27 10:27:01;;;;;;;1.33;0.50;;;23.00;78.90;;;;;;6097866;23;20740;-91
2023/08/27 10:29:27;;;;;;;2.80;0.50;;;22.60;77.00;;;;;;6095666;23;20381;-93
2023/08/27 10:31:54;;;;;;;1.37;0.50;;;22.50;73.20;;;;;;6122381;23;20371;-92
2023/08/27 10:34:23;;;;;;;1.73;0.30;;;22.00;73.40;;;;;;6096056;23;20381;-91
2023/08/27 10:36:51;;;;;;;1.50;0.32;;;21.40;76.70;;;;;;6121244;23;20401;-93
2023/08/27 10:39:19;;;;;;;2.80;0.40;;;20.20;89.60;;;;;;6099222;23;20396;-93
2023/08/27 10:41:58;;;;;;;3.40;0.85;;;19.40;99.90;;;;;;6099838;23;20367;-95
2023/08/27 10:44:24;;;;;;;17.50;2.92;;;18.10;99.90;;;;;;6104464;23;20402;-94
2023/08/27 10:47:10;;;;;;;11.30;4.80;;;16.40;99.90;;;;;;6095933;23;20363;-94
2023/08/27 10:49:37;;;;;;;26.92;9.90;;;15.50;99.90;;;;;;6098440;23;20414;-94
2023/08/27 10:52:13;;;;;;;90.18;18.95;;;15.40;99.90;;;;;;6095798;23;20378;-94
2023/08/27 10:54:39;;;;;;;69.15;17.52;;;15.10;99.90;;;;;;6098625;23;20438;-94
2023/08/27 10:57:24;;;;;;;286.53;37.80;;;15.30;99.90;;;;;;6097348;23;20375;-93
2023/08/27 10:59:53;;;;;;;74.80;20.50;;;15.30;99.90;;;;;;6096432;23;20375;-92
2023/08/27 11:02:18;;;;;;;24.83;16.73;;;16.10;99.90;;;;;;6097721;23;20784;-92
2023/08/27 11:04:49;;;;;;;34.47;15.70;;;15.60;99.90;;;;;;6095019;23;20431;-92
2023/08/27 11:07:17;;;;;;;24.55;11.60;;;15.50;99.90;;;;;;6097734;23;20382;-92
2023/08/27 11:10:04;;;;;;;49.00;18.13;;;15.30;99.90;;;;;;6095903;23;20720;-92
2023/08/27 11:12:34;;;;;;;12.05;10.38;;;14.80;99.90;;;;;;6121080;23;20430;-93
2023/08/27 11:15:11;;;;;;;16.40;14.67;;;14.80;99.90;;;;;;6098681;23;20390;-92
2023/08/27 11:17:38;;;;;;;36.03;21.60;;;14.70;99.90;;;;;;6096198;23;20371;-92
2023/08/27 11:20:22;;;;;;;27.30;18.80;;;14.70;99.90;;;;;;6098394;23;20379;-93
2023/08/27 11:23:02;;;;;;;33.53;22.67;;;14.70;99.90;;;;;;6096412;23;20764;-93
2023/08/27 11:25:29;;;;;;;27.23;22.73;;;14.60;99.90;;;;;;6097376;23;20395;-92
2023/08/27 11:27:59;;;;;;;26.20;18.40;;;14.50;99.90;;;;;;6098228;23;20367;-91
2023/08/27 11:30:26;;;;;;;19.35;16.23;;;14.50;99.90;;;;;;6096097;23;20398;-92
2023/08/27 11:32:53;;;;;;;14.65;12.32;;;14.50;99.90;;;;;;6097472;23;20377;-92
2023/08/27 11:35:26;;;;;;;23.63;12.77;;;15.20;99.90;;;;;;6094774;23;20458;-93
2023/08/27 11:37:53;;;;;;;13.85;8.68;;;14.40;99.90;;;;;;6096852;23;20390;-93
2023/08/27 11:40:19;;;;;;;9.18;6.15;;;14.70;99.90;;;;;;6095934;23;20375;-89
2023/08/27 11:42:53;;;;;;;7.22;2.70;;;14.70;99.90;;;;;;6096072;23;20383;-92
2023/08/27 11:45:34;;;;;;;4.90;1.92;;;14.60;99.90;;;;;;6124005;23;20402;-93
2023/08/27 11:48:05;;;;;;;7.97;3.05;;;14.20;99.90;;;;;;6121701;23;20443;-92
2023/08/27 11:50:37;;;;;;;7.93;3.17;;;14.30;99.90;;;;;;6100034;23;20382;-93
2023/08/27 11:53:05;;;;;;;6.95;3.55;;;14.40;99.90;;;;;;6120966;23;20863;-92
2023/08/27 11:55:31;;;;;;;9.07;4.13;;;14.30;99.90;;;;;;6098943;23;20457;-92
2023/08/27 11:58:00;;;;;;;13.68;6.35;;;14.70;99.90;;;;;;6125111;23;20379;-92
2023/08/27 12:00:26;;;;;;;6.70;4.97;;;14.50;99.90;;;;;;6098700;23;20390;-93
2023/08/27 12:02:54;;;;;;;11.40;7.78;;;14.40;99.90;;;;;;6124086;23;20379;-93
2023/08/27 12:05:20;;;;;;;7.17;4.47;;;14.50;99.90;;;;;;6120746;23;20405;-92
2023/08/27 12:07:46;;;;;;;5.72;2.60;;;14.80;99.90;;;;;;6098276;23;20853;-93
2023/08/27 12:10:14;;;;;;;5.20;2.30;;;14.40;99.90;;;;;;6096240;23;20371;-93
2023/08/27 12:12:40;;;;;;;3.22;1.38;;;14.40;99.90;;;;;;6099478;23;20382;-94
2023/08/27 12:15:07;;;;;;;4.15;1.85;;;14.40;99.90;;;;;;6098274;23;20386;-93
2023/08/27 12:17:34;;;;;;;4.20;2.50;;;14.30;99.90;;;;;;6097466;23;20379;-93
2023/08/27 12:20:01;;;;;;;4.60;2.20;;;14.70;99.90;;;;;;6099316;23;20448;-95
2023/08/27 12:22:27;;;;;;;5.85;1.95;;;14.90;99.90;;;;;;6096496;23;20411;-92
2023/08/27 12:24:54;;;;;;;3.72;1.92;;;15.10;99.90;;;;;;6098185;23;20405;-94
2023/08/27 12:27:22;;;;;;;2.80;0.90;;;15.50;99.90;;;;;;6098440;23;20459;-94
2023/08/27 12:29:53;;;;;;;1.75;0.52;;;15.80;99.90;;;;;;6100579;23;20375;-93
2023/08/27 12:32:21;;;;;;;2.53;0.83;;;16.00;99.90;;;;;;6098947;23;20779;-92